Time;durP1;ratioP1;P1;durP2;ratioP2;P2;SDS_P1;SDS_P2;PMS_P1;PMS_P2;Temp;Humidity;BMP_temperature;BMP_pressure;BME280_temperature;BME280_humidity;BME280_pressure;Samples;Min_cycle;Max_cycle;Signal;HPM_P1;HPM_P2
2023/07/07 00:00:18;;;;;;;6.88;4.30;;;;;;;13.55;100.00;96119.97;1047889;28;20028;-74
2023/07/07 00:00:52;;;;;;;5.85;4.38;;;;;;;13.53;100.00;96118.69;1047548;28;20521;-74
2023/07/07 00:01:22;;;;;;;10.93;4.40;;;;;;;13.52;100.00;96119.75;1046756;28;20094;-74
2023/07/07 00:01:52;;;;;;;6.70;4.32;;;;;;;13.52;100.00;96122.38;1047522;28;20045;-73
2023/07/07 00:02:23;;;;;;;7.63;4.47;;;;;;;13.51;100.00;96120.78;1047614;28;20461;-73
2023/07/07 00:02:53;;;;;;;7.60;4.30;;;;;;;13.50;100.00;96121.84;1047544;28;20133;-74
2023/07/07 00:03:24;;;;;;;6.93;3.88;;;;;;;13.47;100.00;96128.44;1047491;28;20591;-74
2023/07/07 00:03:54;;;;;;;7.80;4.68;;;;;;;13.47;100.00;96122.38;1047463;28;20035;-74
2023/07/07 00:04:25;;;;;;;8.77;4.50;;;;;;;13.44;100.00;96124.50;1047706;28;20816;-74
2023/07/07 00:04:55;;;;;;;8.02;4.47;;;;;;;13.43;100.00;96122.94;1050486;28;20032;-72
2023/07/07 00:05:26;;;;;;;6.57;4.43;;;;;;;13.39;100.00;96127.16;1052125;28;20101;-71
2023/07/07 00:05:56;;;;;;;10.40;4.55;;;;;;;13.37;100.00;96124.00;1052002;28;20039;-73
2023/07/07 00:06:27;;;;;;;8.20;4.75;;;;;;;13.35;100.00;96123.50;1048212;28;20509;-72
2023/07/07 00:06:57;;;;;;;7.93;4.90;;;;;;;13.34;100.00;96116.63;1047876;28;20022;-72
2023/07/07 00:07:28;;;;;;;7.50;4.57;;;;;;;13.32;100.00;96121.41;1047761;28;20020;-73
2023/07/07 00:07:58;;;;;;;6.25;4.30;;;;;;;13.27;100.00;96118.78;1047657;28;20528;-73
2023/07/07 00:08:29;;;;;;;9.93;4.53;;;;;;;13.28;100.00;96114.28;1047435;28;20024;-73
2023/07/07 00:08:59;;;;;;;8.15;4.65;;;;;;;13.27;100.00;96118.78;1047451;28;20486;-72
2023/07/07 00:09:30;;;;;;;7.25;4.75;;;;;;;13.26;100.00;96119.06;1047405;28;20075;-73
2023/07/07 00:10:00;;;;;;;5.90;4.57;;;;;;;13.26;100.00;96121.69;1043307;28;20013;-73
2023/07/07 00:10:31;;;;;;;8.93;4.55;;;;;;;13.26;100.00;96122.47;1046706;28;20780;-73
2023/07/07 00:11:04;;;;;;;8.23;4.30;;;;;;;13.25;100.00;96115.63;1045979;28;20134;-73
2023/07/07 00:11:35;;;;;;;8.30;4.90;;;;;;;13.25;100.00;96120.91;1047176;28;20136;-73
2023/07/07 00:12:05;;;;;;;6.20;4.30;;;;;;;13.26;100.00;96119.06;1047810;28;20473;-73
2023/07/07 00:12:38;;;;;;;7.10;4.45;;;;;;;13.26;100.00;96119.84;1047343;28;20107;-73
2023/07/07 00:13:12;;;;;;;7.50;4.88;;;;;;;13.24;100.00;96124.59;1047214;28;20474;-73
2023/07/07 00:13:42;;;;;;;6.20;4.57;;;;;;;13.21;100.00;96120.63;1047385;28;20020;-74
2023/07/07 00:14:13;;;;;;;8.75;4.75;;;;;;;13.22;100.00;96126.69;1047296;28;20563;-73
2023/07/07 00:14:43;;;;;;;9.95;5.25;;;;;;;13.23;100.00;96122.19;1047256;28;20021;-73
2023/07/07 00:15:14;;;;;;;6.00;4.03;;;;;;;13.22;100.00;96124.06;1043236;28;20025;-73
2023/07/07 00:15:44;;;;;;;6.78;4.43;;;;;;;13.23;100.00;96128.25;1047371;28;20059;-73
2023/07/07 00:16:15;;;;;;;5.82;4.28;;;;;;;13.23;100.00;96125.63;1047064;28;20032;-74
2023/07/07 00:16:46;;;;;;;7.07;4.60;;;;;;;13.23;100.00;96128.25;1047460;28;20464;-72
2023/07/07 00:17:16;;;;;;;7.13;4.85;;;;;;;13.25;100.00;96122.75;1047504;28;20074;-73
2023/07/07 00:17:47;;;;;;;6.35;4.63;;;;;;;13.25;100.00;96126.19;1047594;28;20132;-74
2023/07/07 00:18:26;;;;;;;6.10;4.22;;;;;;;13.25;100.00;96125.41;1047223;28;20032;-73
2023/07/07 00:18:57;;;;;;;6.75;4.47;;;;;;;13.25;100.00;96126.19;1050254;28;20016;-73
2023/07/07 00:19:33;;;;;;;6.55;4.32;;;;;;;13.25;100.00;96128.03;1043377;28;20024;-73
2023/07/07 00:20:04;;;;;;;5.55;4.30;;;;;;;13.24;100.00;96123.78;1043358;28;20055;-74
2023/07/07 00:20:35;;;;;;;8.27;4.65;;;;;;;13.24;100.00;96127.22;1049226;28;20706;-74
2023/07/07 00:21:05;;;;;;;6.65;4.57;;;;;;;13.24;100.00;96129.84;1047736;28;20028;-73
2023/07/07 00:21:37;;;;;;;7.32;4.28;;;;;;;13.23;100.00;96125.63;1051367;28;20024;-73
2023/07/07 00:22:07;;;;;;;7.82;5.00;;;;;;;13.23;100.00;96122.19;1046940;28;20044;-74
2023/07/07 00:22:38;;;;;;;10.85;4.88;;;;;;;13.21;100.00;96125.09;1043226;28;20103;-74
2023/07/07 00:23:08;;;;;;;9.82;4.72;;;;;;;13.22;100.00;96131.97;1051438;28;20019;-72
2023/07/07 00:23:39;;;;;;;7.70;4.35;;;;;;;13.20;100.00;96123.53;1048563;28;20044;-73
2023/07/07 00:24:09;;;;;;;6.40;4.43;;;;;;;13.20;100.00;96131.44;1055507;28;20097;-73
2023/07/07 00:24:40;;;;;;;6.63;4.68;;;;;;;13.18;100.00;96123.03;1055493;28;20020;-74
2023/07/07 00:25:10;;;;;;;5.82;4.25;;;;;;;13.17;100.00;96124.06;1047262;28;20025;-74
2023/07/07 00:25:41;;;;;;;6.13;4.47;;;;;;;13.15;100.00;96126.97;1047187;28;20074;-73
2023/07/07 00:26:11;;;;;;;5.60;4.28;;;;;;;13.15;100.00;96126.19;1051415;28;20097;-73
2023/07/07 00:26:42;;;;;;;6.10;4.30;;;;;;;13.14;100.00;96127.22;1051498;28;20028;-74
2023/07/07 00:27:13;;;;;;;7.13;4.22;;;;;;;13.13;100.00;96128.28;1058239;27;20028;-74
2023/07/07 00:27:44;;;;;;;7.30;4.60;;;;;;;13.14;100.00;96124.59;1059489;27;20023;-74
2023/07/07 00:28:14;;;;;;;8.25;4.22;;;;;;;13.13;100.00;96126.44;1051749;28;20028;-73
2023/07/07 00:28:45;;;;;;;8.20;4.82;;;;;;;13.14;100.00;96124.59;1051559;28;20028;-73
2023/07/07 00:29:15;;;;;;;8.20;4.70;;;;;;;13.14;100.00;96127.22;1051782;28;20091;-74
2023/07/07 00:29:45;;;;;;;8.13;4.50;;;;;;;13.13;100.00;96128.28;1051787;28;20031;-73
2023/07/07 00:30:16;;;;;;;7.15;4.40;;;;;;;13.11;100.00;96120.66;1051793;28;20078;-72
2023/07/07 00:30:47;;;;;;;7.70;4.90;;;;;;;13.12;100.00;96132.00;1051277;28;20066;-74
2023/07/07 00:31:17;;;;;;;8.45;4.70;;;;;;;13.11;100.00;96131.22;1050787;28;20024;-74
2023/07/07 00:31:48;;;;;;;5.82;4.38;;;;;;;13.10;100.00;96124.34;1055782;28;20023;-73
2023/07/07 00:32:18;;;;;;;7.47;4.47;;;;;;;13.11;100.00;96130.41;1053158;28;20063;-73
2023/07/07 00:32:49;;;;;;;6.97;4.82;;;;;;;13.09;100.00;96130.69;1055705;28;20055;-73
2023/07/07 00:33:19;;;;;;;6.88;4.30;;;;;;;13.09;100.00;96128.03;1055526;28;20093;-74
2023/07/07 00:33:50;;;;;;;11.23;5.55;;;;;;;13.09;100.00;96129.91;1047668;28;20020;-74
2023/07/07 00:34:20;;;;;;;7.20;4.25;;;;;;;13.08;100.00;96130.97;1047486;28;20024;-73
2023/07/07 00:34:51;;;;;;;7.57;5.00;;;;;;;13.09;100.00;96132.53;1047379;28;20028;-73
2023/07/07 00:35:21;;;;;;;7.65;4.60;;;;;;;13.07;100.00;96129.34;1047365;28;20473;-74
2023/07/07 00:35:52;;;;;;;8.10;5.25;;;;;;;13.07;100.00;96137.25;1047263;28;20035;-74
2023/07/07 00:36:22;;;;;;;10.07;5.22;;;;;;;12.94;100.00;96110.44;1047363;28;20032;-73
2023/07/07 00:36:53;;;;;;;7.53;5.05;;;;;;;13.05;100.00;96131.50;1043263;28;20025;-73
2023/07/07 00:37:23;;;;;;;11.13;4.70;;;;;;;13.04;100.00;96127.25;1043016;28;20079;-74
2023/07/07 00:37:54;;;;;;;6.97;4.65;;;;;;;13.05;100.00;96136.75;1043271;28;20059;-74
2023/07/07 00:38:25;;;;;;;8.02;5.00;;;;;;;13.03;100.00;96128.31;1043402;28;20075;-74
2023/07/07 00:38:56;;;;;;;7.13;4.60;;;;;;;13.03;100.00;96133.59;1047483;28;20024;-74
2023/07/07 00:39:26;;;;;;;6.70;4.22;;;;;;;13.02;100.00;96134.66;1047734;28;20052;-73
2023/07/07 00:39:56;;;;;;;5.90;4.47;;;;;;;13.01;100.00;96135.69;1047686;28;20471;-73
2023/07/07 00:40:27;;;;;;;6.57;4.35;;;;;;;13.00;100.00;96131.50;1047767;28;20032;-73
2023/07/07 00:41:01;;;;;;;6.90;5.25;;;;;;;13.01;100.00;96131.25;1047396;28;20078;-73
2023/07/07 00:41:32;;;;;;;8.35;4.45;;;;;;;12.98;100.00;96135.19;1047468;28;20446;-74
2023/07/07 00:42:03;;;;;;;9.20;5.05;;;;;;;13.02;100.00;96132.03;1047315;28;20020;-73
2023/07/07 00:42:34;;;;;;;7.05;4.47;;;;;;;12.99;100.00;96133.34;1047333;28;20048;-75
2023/07/07 00:43:16;;;;;;;6.57;4.68;;;;;;;12.99;100.00;96138.63;1047316;28;20025;-74
2023/07/07 00:44:03;;;;;;;8.43;4.55;;;;;;;12.98;100.00;96137.81;1053349;28;20056;-72
2023/07/07 00:45:01;;;;;;;7.75;4.25;;;;;;;12.98;100.00;96137.81;1055713;28;20028;-75
2023/07/07 00:45:32;;;;;;;8.43;5.15;;;;;;;12.97;100.00;96135.44;1051395;28;20028;-73
2023/07/07 00:46:02;;;;;;;9.05;4.32;;;;;;;12.96;100.00;96141.78;1047594;28;20021;-75
2023/07/07 00:46:33;;;;;;;9.82;4.82;;;;;;;12.96;100.00;96139.94;1043259;28;20025;-74
2023/07/07 00:47:04;;;;;;;5.93;4.50;;;;;;;12.94;100.00;96139.41;1043238;28;20078;-73
2023/07/07 00:47:37;;;;;;;7.20;5.22;;;;;;;12.94;100.00;96138.59;1042978;28;20033;-74
2023/07/07 00:48:32;;;;;;;8.15;4.32;;;;;;;12.92;100.00;96146.78;1040203;28;20083;-74
2023/07/07 00:49:05;;;;;;;7.63;4.88;;;;;;;12.78;100.00;96119.44;1039436;28;20030;-74
2023/07/07 00:49:35;;;;;;;6.78;4.70;;;;;;;12.91;100.00;96142.59;1043053;28;20021;-73
2023/07/07 00:50:06;;;;;;;7.38;4.60;;;;;;;12.91;100.00;96142.59;1046838;28;20046;-72
2023/07/07 00:50:40;;;;;;;6.45;4.40;;;;;;;12.90;100.00;96145.47;1047383;28;20067;-74
2023/07/07 00:51:24;;;;;;;7.00;5.00;;;;;;;12.89;100.00;96144.69;1042301;28;20025;-74
2023/07/07 00:51:57;;;;;;;7.82;4.47;;;;;;;12.89;100.00;96143.91;1043131;28;20024;-75
2023/07/07 00:52:28;;;;;;;7.20;4.85;;;;;;;12.89;100.00;96144.69;1034807;28;20053;-74
2023/07/07 00:52:58;;;;;;;8.82;4.60;;;;;;;12.88;100.00;96151.03;1033445;28;20018;-74
2023/07/07 00:53:29;;;;;;;7.68;4.97;;;;;;;12.88;100.00;96145.75;1035507;28;20029;-73
2023/07/07 00:54:03;;;;;;;7.65;5.40;;;;;;;12.87;100.00;96146.78;1039651;28;20029;-74
2023/07/07 00:54:33;;;;;;;6.82;4.80;;;;;;;12.87;100.00;96146.78;1043514;28;20040;-74
2023/07/07 00:55:04;;;;;;;7.93;5.03;;;;;;;12.86;100.00;96147.84;1047323;28;20047;-73
2023/07/07 00:55:52;;;;;;;11.63;4.70;;;;;;;12.86;100.00;96150.47;1047303;28;20055;-74
2023/07/07 00:56:31;;;;;;;7.90;5.05;;;;;;;12.86;100.00;96147.84;1050175;28;20025;-74
2023/07/07 00:57:02;;;;;;;8.18;4.57;;;;;;;12.85;100.00;96143.66;1043212;28;20021;-74
2023/07/07 00:57:32;;;;;;;7.20;4.57;;;;;;;12.86;100.00;96150.47;1043359;28;20074;-75
2023/07/07 00:58:06;;;;;;;8.00;5.13;;;;;;;12.87;100.00;96149.41;1041976;28;20037;-73
2023/07/07 00:58:37;;;;;;;6.88;4.60;;;;;;;12.86;100.00;96147.06;1039708;28;20034;-74
2023/07/07 00:59:15;;;;;;;9.52;4.88;;;;;;;12.85;100.00;96148.13;1039718;28;20013;-74
2023/07/07 00:59:45;;;;;;;7.22;4.78;;;;;;;12.86;100.00;96150.47;1036512;28;20037;-73
2023/07/07 01:00:16;;;;;;;8.63;4.97;;;;;;;12.87;100.00;96152.06;1040420;28;20040;-74
2023/07/07 01:00:49;;;;;;;7.53;4.70;;;;;;;12.74;100.00;96126.28;1048534;28;20490;-74
2023/07/07 01:01:20;;;;;;;7.80;4.70;;;;;;;12.84;100.00;96147.31;1044213;28;20029;-74
2023/07/07 01:01:52;;;;;;;7.20;4.85;;;;;;;12.83;100.00;96147.59;1051442;28;20445;-75
2023/07/07 01:02:26;;;;;;;10.38;5.40;;;;;;;12.82;100.00;96146.03;1050547;28;20584;-73
2023/07/07 01:02:57;;;;;;;7.75;4.80;;;;;;;12.82;100.00;96146.81;1047187;28;20031;-73
2023/07/07 01:03:32;;;;;;;7.55;4.63;;;;;;;12.80;100.00;96143.66;1047590;28;20036;-73
2023/07/07 01:04:05;;;;;;;8.25;4.55;;;;;;;12.77;100.00;96136.28;1043174;28;20021;-74
2023/07/07 01:04:37;;;;;;;8.85;5.05;;;;;;;12.80;100.00;96143.66;1038841;28;20045;-72
2023/07/07 01:05:07;;;;;;;8.07;4.82;;;;;;;12.80;100.00;96150.75;1043161;28;20028;-74
2023/07/07 01:05:38;;;;;;;7.70;4.93;;;;;;;12.81;100.00;96145.25;1040344;28;20096;-73
2023/07/07 01:06:10;;;;;;;6.50;4.35;;;;;;;12.81;100.00;96141.78;1042089;28;20028;-74
2023/07/07 01:06:42;;;;;;;7.65;4.45;;;;;;;12.81;100.00;96147.06;1043172;28;20025;-74
2023/07/07 01:07:14;;;;;;;6.32;4.50;;;;;;;12.79;100.00;96138.66;1043223;28;20494;-74
2023/07/07 01:07:45;;;;;;;7.30;4.82;;;;;;;12.80;100.00;96145.50;1039256;28;20033;-73
2023/07/07 01:08:15;;;;;;;9.05;4.75;;;;;;;12.79;100.00;96143.94;1034848;28;20072;-74
2023/07/07 01:08:46;;;;;;;8.77;5.07;;;;;;;12.79;100.00;96144.72;1035284;28;20022;-73
2023/07/07 01:09:16;;;;;;;7.13;5.20;;;;;;;12.78;100.00;96143.13;1035205;28;20030;-73
2023/07/07 01:09:47;;;;;;;7.57;4.28;;;;;;;12.78;100.00;96148.41;1039176;28;20084;-74
2023/07/07 01:10:20;;;;;;;8.27;4.40;;;;;;;12.77;100.00;96146.81;1047227;28;20052;-73
2023/07/07 01:10:51;;;;;;;6.10;4.47;;;;;;;12.78;100.00;96142.34;1047297;28;20097;-74
2023/07/07 01:11:21;;;;;;;6.13;4.30;;;;;;;12.77;100.00;96144.19;1046841;28;20032;-73
2023/07/07 01:11:52;;;;;;;10.00;4.55;;;;;;;12.76;100.00;96145.25;1047624;28;20025;-73
2023/07/07 01:12:22;;;;;;;8.55;4.95;;;;;;;12.75;100.00;96143.66;1047553;28;20020;-74
2023/07/07 01:12:53;;;;;;;6.13;4.53;;;;;;;12.76;100.00;96145.25;1047230;28;20025;-74
2023/07/07 01:13:23;;;;;;;8.65;4.53;;;;;;;12.73;100.00;96154.44;1047388;28;20521;-74
2023/07/07 01:13:54;;;;;;;9.60;4.15;;;;;;;12.74;100.00;96149.97;1047645;28;20114;-74
2023/07/07 01:14:25;;;;;;;7.40;4.43;;;;;;;12.74;100.00;96149.97;1047241;28;20067;-74
2023/07/07 01:14:56;;;;;;;8.18;4.90;;;;;;;12.70;100.00;96151.56;1047061;28;20047;-73
2023/07/07 01:15:28;;;;;;;10.35;5.13;;;;;;;12.56;100.00;96134.72;1047249;28;20043;-74
2023/07/07 01:16:09;;;;;;;7.20;4.38;;;;;;;12.68;100.00;96159.75;1043363;28;20132;-73
2023/07/07 01:16:45;;;;;;;7.05;4.65;;;;;;;12.64;100.00;96156.06;1046766;28;20104;-74
2023/07/07 01:17:32;;;;;;;7.43;4.63;;;;;;;12.64;100.00;96157.88;1047209;28;20483;-73
2023/07/07 01:18:18;;;;;;;7.35;4.68;;;;;;;12.64;100.00;96158.69;1047130;28;20017;-73
2023/07/07 01:19:18;;;;;;;10.50;4.80;;;;;;;12.64;100.00;96157.88;1046477;28;20627;-74
2023/07/07 01:20:00;;;;;;;7.50;4.65;;;;;;;12.46;100.00;96125.78;1041281;28;20030;-74
2023/07/07 01:20:42;;;;;;;7.55;4.60;;;;;;;12.62;100.00;96154.75;1048511;28;20104;-74
2023/07/07 01:21:49;;;;;;;7.43;4.78;;;;;;;12.61;100.00;96159.22;1050754;28;20023;-74
2023/07/07 01:22:37;;;;;;;6.38;4.38;;;;;;;12.62;100.00;96152.09;1030527;28;20901;-74
2023/07/07 01:23:33;;;;;;;8.50;4.53;;;;;;;12.61;100.00;96150.50;1022340;28;20129;-72
2023/07/07 01:24:04;;;;;;;7.75;4.60;;;;;;;12.59;100.00;96150.78;1030979;28;20031;-74
2023/07/07 01:24:52;;;;;;;11.85;4.82;;;;;;;12.59;100.00;96150.00;1047292;28;20028;-74
2023/07/07 01:25:29;;;;;;;11.02;4.75;;;;;;;12.58;100.00;96137.91;1055326;28;20058;-74
2023/07/07 01:26:18;;;;;;;7.85;4.60;;;;;;;12.59;100.00;96150.78;1047455;28;20024;-73
2023/07/07 01:27:05;;;;;;;6.07;4.32;;;;;;;12.59;100.00;96150.00;1047203;28;20008;-74
2023/07/07 01:27:56;;;;;;;7.68;4.75;;;;;;;12.56;100.00;96148.69;1052012;28;20583;-72
2023/07/07 01:28:35;;;;;;;8.15;4.22;;;;;;;12.57;100.00;96152.09;1051428;28;20149;-74
2023/07/07 01:29:14;;;;;;;8.05;4.40;;;;;;;12.56;100.00;96150.53;1046504;28;20024;-71
2023/07/07 01:29:55;;;;;;;6.35;4.88;;;;;;;12.55;100.00;96148.97;1038980;28;20028;-74
2023/07/07 01:30:25;;;;;;;;;;;;;;;12.54;100.00;96156.06;1044454;28;20025;-73
2023/07/07 01:30:58;;;;;;;7.75;4.60;;;;;;;12.50;100.00;96144.47;1049821;28;19908;-73
2023/07/07 01:31:58;;;;;;;8.30;4.57;;;;;;;12.50;100.00;96155.78;1042475;28;20029;-73
2023/07/07 01:32:29;;;;;;;10.07;4.85;;;;;;;12.47;100.00;96155.53;1044710;28;20286;-73
2023/07/07 01:33:01;;;;;;;12.40;4.88;;;;;;;12.43;100.00;96151.84;1039090;28;20546;-74
2023/07/07 01:33:32;;;;;;;15.63;5.25;;;;;;;12.44;100.00;96151.59;1051310;28;20032;-74
2023/07/07 01:34:02;;;;;;;10.73;5.03;;;;;;;12.37;100.00;96143.16;1044076;28;20024;-74
2023/07/07 01:34:33;;;;;;;8.52;5.00;;;;;;;12.40;100.00;96152.38;1039777;28;20032;-72
2023/07/07 01:35:08;;;;;;;7.85;4.75;;;;;;;12.37;100.00;96153.69;1042752;28;20059;-74
2023/07/07 01:35:38;;;;;;;11.93;4.78;;;;;;;12.35;100.00;96153.16;1034498;28;20554;-74
2023/07/07 01:36:09;;;;;;;15.93;5.72;;;;;;;12.31;100.00;96154.75;1035044;28;20056;-73
2023/07/07 01:36:39;;;;;;;9.27;5.07;;;;;;;12.29;100.00;96151.59;1039599;28;20029;-74
2023/07/07 01:37:09;;;;;;;5.70;4.40;;;;;;;12.27;100.00;96156.31;1047593;28;20023;-74
2023/07/07 01:37:40;;;;;;;6.85;4.60;;;;;;;12.26;100.00;96154.75;1055623;28;20032;-74
2023/07/07 01:38:36;;;;;;;5.20;4.22;;;;;;;12.24;100.00;96162.13;1055531;28;20394;-74
2023/07/07 01:39:06;;;;;;;9.15;4.93;;;;;;;12.23;100.00;96157.88;1048681;28;20841;-74
2023/07/07 01:39:37;;;;;;;8.93;4.72;;;;;;;12.21;100.00;96157.38;1047464;28;20035;-74
2023/07/07 01:40:08;;;;;;;8.25;4.90;;;;;;;12.19;100.00;96156.84;1047191;28;20059;-74
2023/07/07 01:40:42;;;;;;;11.45;5.45;;;;;;;12.18;100.00;96150.00;1046935;28;20053;-74
2023/07/07 01:41:32;;;;;;;9.90;5.22;;;;;;;12.18;100.00;96163.16;1046538;28;20031;-74
2023/07/07 01:42:30;;;;;;;9.00;4.50;;;;;;;12.17;100.00;96164.19;1046371;28;20098;-74
2023/07/07 01:43:04;;;;;;;8.27;4.63;;;;;;;12.16;100.00;96165.25;1042956;28;20028;-74
2023/07/07 01:43:39;;;;;;;7.53;4.88;;;;;;;12.13;100.00;96165.78;1042947;28;20099;-74
2023/07/07 01:44:36;;;;;;;7.88;4.80;;;;;;;12.13;100.00;96163.16;1038823;28;20306;-73
2023/07/07 01:45:29;;;;;;;11.25;5.72;;;;;;;12.11;100.00;96170.53;1044573;28;20055;-74
2023/07/07 01:46:08;;;;;;;13.73;5.30;;;;;;;11.94;100.00;96140.00;1035916;28;20592;-73
2023/07/07 01:46:45;;;;;;;9.40;4.97;;;;;;;12.08;100.00;96165.78;1030393;28;20265;-70
2023/07/07 01:47:20;;;;;;;6.30;4.53;;;;;;;12.09;100.00;96162.88;1047169;28;20255;-70
2023/07/07 01:47:57;;;;;;;7.95;5.10;;;;;;;12.08;100.00;96161.31;1038780;28;20299;-70
2023/07/07 01:48:40;;;;;;;7.88;4.78;;;;;;;12.07;100.00;96172.06;1039929;28;20128;-69
2023/07/07 01:49:12;;;;;;;8.93;4.57;;;;;;;12.09;100.00;96168.13;1034641;28;20538;-70
2023/07/07 01:50:17;;;;;;;6.57;4.78;;;;;;;12.09;100.00;96169.97;1041761;28;20270;-71
2023/07/07 01:50:47;;;;;;;7.05;4.70;;;;;;;12.08;100.00;96163.16;1032589;28;20033;-74
2023/07/07 01:51:18;;;;;;;9.48;5.00;;;;;;;11.94;100.00;96145.25;1033286;28;20596;-74
2023/07/07 01:51:56;;;;;;;7.18;5.20;;;;;;;12.09;100.00;96169.97;1038175;28;20435;-73
2023/07/07 01:52:41;;;;;;;8.60;5.03;;;;;;;12.05;100.00;96168.94;1047049;28;20035;-73
2023/07/07 01:53:15;;;;;;;7.97;4.60;;;;;;;11.89;100.00;96153.13;1047243;28;20038;-74
2023/07/07 01:53:45;;;;;;;7.38;4.38;;;;;;;12.01;100.00;96172.09;1046590;28;20270;-73
2023/07/07 01:54:16;;;;;;;7.75;4.90;;;;;;;11.98;100.00;96171.81;1042785;28;20116;-74
2023/07/07 01:54:50;;;;;;;7.82;5.18;;;;;;;11.99;100.00;96170.75;1047149;28;20375;-74
2023/07/07 01:55:30;;;;;;;7.47;4.57;;;;;;;11.97;100.00;96171.03;1042988;28;20100;-74
2023/07/07 01:56:01;;;;;;;9.88;4.97;;;;;;;11.95;100.00;96173.13;1040755;28;20252;-74
2023/07/07 01:56:31;;;;;;;34.15;8.20;;;;;;;11.94;100.00;96176.81;1040972;28;20107;-74
2023/07/07 01:57:02;;;;;;;26.70;7.20;;;;;;;11.96;100.00;96173.91;1042001;28;20028;-73
2023/07/07 01:57:32;;;;;;;19.35;6.32;;;;;;;11.81;100.00;96161.50;1047269;28;20029;-74
2023/07/07 01:58:04;;;;;;;19.45;5.68;;;;;;;11.94;100.00;96174.19;1047115;28;20078;-74
2023/07/07 01:58:35;;;;;;;12.40;5.13;;;;;;;11.94;100.00;96176.81;1046948;28;20020;-73
2023/07/07 01:59:05;;;;;;;7.78;4.80;;;;;;;11.93;100.00;96180.47;1047088;28;20020;-74
2023/07/07 01:59:36;;;;;;;9.80;5.22;;;;;;;11.93;100.00;96180.47;1046969;28;20087;-73
2023/07/07 02:00:07;;;;;;;9.05;5.05;;;;;;;11.92;100.00;96178.88;1043127;28;20048;-73
2023/07/07 02:00:37;;;;;;;7.90;5.18;;;;;;;11.90;100.00;96182.81;1042931;28;20070;-74
2023/07/07 02:01:08;;;;;;;7.55;4.82;;;;;;;11.89;100.00;96179.41;1042270;28;20029;-73
2023/07/07 02:01:38;;;;;;;9.80;4.50;;;;;;;11.87;100.00;96178.91;1042827;28;20441;-73
2023/07/07 02:02:09;;;;;;;7.90;5.00;;;;;;;11.87;100.00;96178.91;1043142;28;20071;-74
2023/07/07 02:02:39;;;;;;;8.75;5.07;;;;;;;11.88;100.00;96182.31;1042747;28;20150;-74
2023/07/07 02:03:10;;;;;;;8.15;5.20;;;;;;;11.91;100.00;96179.16;1042981;28;20054;-73
2023/07/07 02:03:41;;;;;;;10.45;5.07;;;;;;;11.93;100.00;96180.47;1047172;28;20016;-74
2023/07/07 02:04:11;;;;;;;11.48;4.53;;;;;;;11.95;100.00;96180.22;1043042;28;20075;-73
2023/07/07 02:04:42;;;;;;;8.82;5.20;;;;;;;11.92;100.00;96180.75;1045112;28;20031;-74
2023/07/07 02:05:12;;;;;;;7.55;5.18;;;;;;;11.91;100.00;96185.22;1042801;28;20028;-74
2023/07/07 02:05:43;;;;;;;18.63;6.13;;;;;;;11.93;100.00;96177.06;1035040;28;20033;-74
2023/07/07 02:06:13;;;;;;;16.77;6.30;;;;;;;11.91;100.00;96179.94;1047037;28;20032;-74
2023/07/07 02:06:44;;;;;;;30.27;6.38;;;;;;;11.87;100.00;96176.25;1046996;28;20052;-73
2023/07/07 02:07:14;;;;;;;9.30;4.72;;;;;;;11.92;100.00;96188.63;1047207;28;20036;-74
2023/07/07 02:07:45;;;;;;;10.23;4.88;;;;;;;11.91;100.00;96179.94;1051081;28;20036;-74
2023/07/07 02:08:15;;;;;;;8.52;4.68;;;;;;;11.88;100.00;96185.72;1051303;28;20034;-73
2023/07/07 02:08:46;;;;;;;9.13;4.80;;;;;;;11.89;100.00;96183.88;1055488;28;20565;-73
2023/07/07 02:09:17;;;;;;;9.30;4.90;;;;;;;11.88;100.00;96185.72;1051135;28;20027;-74
2023/07/07 02:09:48;;;;;;;9.75;5.40;;;;;;;11.87;100.00;96186.78;1050045;28;20531;-73
2023/07/07 02:10:18;;;;;;;7.20;4.90;;;;;;;11.86;100.00;96184.41;1047001;28;20028;-74
2023/07/07 02:10:49;;;;;;;7.40;4.90;;;;;;;11.84;100.00;96187.31;1045467;28;20034;-73
2023/07/07 02:11:19;;;;;;;7.57;5.28;;;;;;;11.83;100.00;96182.25;1048339;28;20090;-74
2023/07/07 02:11:50;;;;;;;8.07;4.82;;;;;;;11.82;100.00;96185.94;1047094;28;20082;-73
2023/07/07 02:12:20;;;;;;;8.02;5.38;;;;;;;11.82;100.00;96180.69;1046980;28;20597;-74
2023/07/07 02:12:51;;;;;;;10.48;5.22;;;;;;;11.79;100.00;96180.13;1046830;28;20082;-74
2023/07/07 02:13:21;;;;;;;7.32;5.15;;;;;;;11.77;100.00;96181.47;1046974;28;20033;-74
2023/07/07 02:13:52;;;;;;;6.95;4.88;;;;;;;11.78;100.00;96177.78;1047404;28;20520;-73
2023/07/07 02:14:22;;;;;;;10.63;5.00;;;;;;;11.76;100.00;96175.41;1047451;28;20048;-73
2023/07/07 02:14:53;;;;;;;7.38;4.90;;;;;;;11.75;100.00;96173.81;1042568;28;20545;-74
2023/07/07 02:15:23;;;;;;;8.32;5.10;;;;;;;11.75;100.00;96179.09;1042793;28;20074;-72
2023/07/07 02:15:54;;;;;;;7.93;5.00;;;;;;;11.77;100.00;96173.59;1038881;28;20100;-73
2023/07/07 02:16:24;;;;;;;8.57;5.22;;;;;;;11.77;100.00;96179.63;1040413;28;20030;-74
2023/07/07 02:16:55;;;;;;;9.70;5.32;;;;;;;11.76;100.00;96179.88;1046939;28;20032;-73
2023/07/07 02:17:28;;;;;;;7.72;5.10;;;;;;;11.75;100.00;96178.28;1046954;28;20031;-74
2023/07/07 02:17:59;;;;;;;7.55;4.95;;;;;;;11.75;100.00;96178.28;1050441;28;20544;-74
2023/07/07 02:18:29;;;;;;;6.97;4.65;;;;;;;11.75;100.00;96179.09;1047736;28;20277;-73
2023/07/07 02:19:02;;;;;;;8.88;5.35;;;;;;;11.74;100.00;96176.72;1051109;28;20040;-73
2023/07/07 02:19:33;;;;;;;11.90;5.47;;;;;;;11.74;100.00;96176.72;1051107;28;20020;-74
2023/07/07 02:20:04;;;;;;;7.47;5.25;;;;;;;11.72;100.00;96178.81;1051213;28;20016;-74
2023/07/07 02:20:35;;;;;;;9.25;5.32;;;;;;;11.73;100.00;96183.00;1047165;28;20036;-74
2023/07/07 02:21:05;;;;;;;10.52;5.40;;;;;;;11.73;100.00;96175.91;1046770;28;20289;-73
2023/07/07 02:21:36;;;;;;;8.25;5.30;;;;;;;11.72;100.00;96189.31;1047558;28;20545;-73
2023/07/07 02:22:06;;;;;;;9.18;5.05;;;;;;;11.72;100.00;96184.06;1047661;28;20098;-73
2023/07/07 02:22:37;;;;;;;7.93;5.25;;;;;;;11.76;100.00;96179.88;1045830;28;20024;-73
2023/07/07 02:23:08;;;;;;;10.40;5.22;;;;;;;11.79;100.00;96179.34;1043263;28;20730;-74
2023/07/07 02:23:38;;;;;;;8.13;5.18;;;;;;;11.78;100.00;96185.66;1043006;28;20267;-74
2023/07/07 02:24:08;;;;;;;14.35;6.07;;;;;;;11.76;100.00;96179.88;1043380;28;20027;-73
2023/07/07 02:24:39;;;;;;;10.82;5.80;;;;;;;11.73;100.00;96177.75;1047239;28;20389;-74
2023/07/07 02:25:10;;;;;;;8.27;5.82;;;;;;;11.78;100.00;96183.03;1055541;28;20042;-74
2023/07/07 02:25:40;;;;;;;9.10;5.40;;;;;;;11.78;100.00;96183.81;1055300;28;20020;-73
2023/07/07 02:26:13;;;;;;;14.43;6.20;;;;;;;11.77;100.00;96187.50;1055442;28;20020;-71
2023/07/07 02:26:44;;;;;;;11.93;5.20;;;;;;;11.75;100.00;96188.81;1051723;28;20017;-73
2023/07/07 02:27:14;;;;;;;12.23;5.93;;;;;;;11.73;100.00;96177.75;1054433;28;20011;-73
2023/07/07 02:27:45;;;;;;;8.48;4.95;;;;;;;11.71;100.00;96185.91;1055807;28;20032;-73
2023/07/07 02:28:15;;;;;;;8.52;4.78;;;;;;;11.70;100.00;96183.53;1051221;28;20035;-72
2023/07/07 02:28:46;;;;;;;7.90;5.60;;;;;;;11.70;100.00;96186.16;1047432;28;20594;-74
2023/07/07 02:29:16;;;;;;;10.70;5.60;;;;;;;11.68;100.00;96183.00;1051572;28;20133;-72
2023/07/07 02:29:47;;;;;;;8.30;5.47;;;;;;;11.68;100.00;96180.38;1051671;28;20016;-74
2023/07/07 02:30:17;;;;;;;10.73;5.45;;;;;;;11.66;100.00;96185.88;1051539;28;20023;-74
2023/07/07 02:30:48;;;;;;;15.48;5.93;;;;;;;11.66;100.00;96179.84;1051713;28;20020;-74
2023/07/07 02:31:18;;;;;;;10.68;5.63;;;;;;;11.67;100.00;96178.78;1050753;28;20031;-74
2023/07/07 02:31:49;;;;;;;8.30;5.82;;;;;;;11.62;100.00;96178.78;1051608;28;20016;-74
2023/07/07 02:32:19;;;;;;;10.75;5.35;;;;;;;11.66;100.00;96185.09;1048971;28;20021;-74
2023/07/07 02:32:50;;;;;;;8.80;5.10;;;;;;;11.66;100.00;96185.09;1047854;28;20423;-74
2023/07/07 02:33:31;;;;;;;9.00;5.40;;;;;;;11.67;100.00;96186.66;1047887;28;20020;-73
2023/07/07 02:34:01;;;;;;;9.00;5.75;;;;;;;11.68;100.00;96180.38;1047633;28;20032;-73
2023/07/07 02:34:32;;;;;;;14.55;5.85;;;;;;;11.67;100.00;96186.66;1047741;28;20267;-73
2023/07/07 02:35:03;;;;;;;8.48;5.45;;;;;;;11.66;100.00;96185.88;1047548;28;20026;-74